sensor_id;sensor_type;location;lat;lon;timestamp;P1;durP1;ratioP1;P2;durP2;ratioP2
57225;SDS011;43082;43.568;22.256;2022-12-29T00:01:13;59.25;;;37.92;;
57225;SDS011;43082;43.568;22.256;2022-12-29T00:03:38;52.78;;;37.75;;
57225;SDS011;43082;43.568;22.256;2022-12-29T00:06:04;56.80;;;40.35;;
57225;SDS011;43082;43.568;22.256;2022-12-29T00:08:29;48.20;;;33.25;;
57225;SDS011;43082;43.568;22.256;2022-12-29T00:11:14;52.28;;;35.20;;
57225;SDS011;43082;43.568;22.256;2022-12-29T00:13:41;63.70;;;43.08;;
57225;SDS011;43082;43.568;22.256;2022-12-29T00:16:25;58.13;;;39.10;;
57225;SDS011;43082;43.568;22.256;2022-12-29T00:18:51;70.07;;;48.72;;
57225;SDS011;43082;43.568;22.256;2022-12-29T00:21:18;81.32;;;54.10;;
57225;SDS011;43082;43.568;22.256;2022-12-29T00:24:03;76.22;;;50.95;;
57225;SDS011;43082;43.568;22.256;2022-12-29T00:29:47;60.50;;;41.72;;
57225;SDS011;43082;43.568;22.256;2022-12-29T00:32:35;63.38;;;41.33;;
57225;SDS011;43082;43.568;22.256;2022-12-29T00:35:24;71.55;;;47.72;;
57225;SDS011;43082;43.568;22.256;2022-12-29T00:37:59;83.35;;;55.90;;
57225;SDS011;43082;43.568;22.256;2022-12-29T00:40:46;73.30;;;51.30;;
57225;SDS011;43082;43.568;22.256;2022-12-29T00:43:30;80.57;;;53.67;;
57225;SDS011;43082;43.568;22.256;2022-12-29T00:46:15;70.57;;;50.92;;
57225;SDS011;43082;43.568;22.256;2022-12-29T00:48:40;79.38;;;53.28;;
57225;SDS011;43082;43.568;22.256;2022-12-29T00:51:24;67.82;;;48.22;;
57225;SDS011;43082;43.568;22.256;2022-12-29T00:53:50;65.05;;;43.63;;
57225;SDS011;43082;43.568;22.256;2022-12-29T00:56:15;58.83;;;40.83;;
57225;SDS011;43082;43.568;22.256;2022-12-29T00:58:40;59.88;;;40.95;;
57225;SDS011;43082;43.568;22.256;2022-12-29T01:01:07;59.42;;;40.35;;
57225;SDS011;43082;43.568;22.256;2022-12-29T01:03:33;52.05;;;36.17;;
57225;SDS011;43082;43.568;22.256;2022-12-29T01:06:00;37.92;;;25.48;;
57225;SDS011;43082;43.568;22.256;2022-12-29T01:08:27;37.15;;;24.45;;
57225;SDS011;43082;43.568;22.256;2022-12-29T01:11:00;37.00;;;25.10;;
57225;SDS011;43082;43.568;22.256;2022-12-29T01:13:26;37.60;;;26.27;;
57225;SDS011;43082;43.568;22.256;2022-12-29T01:15:52;37.00;;;25.00;;
57225;SDS011;43082;43.568;22.256;2022-12-29T01:18:19;39.35;;;26.77;;
57225;SDS011;43082;43.568;22.256;2022-12-29T01:20:45;38.53;;;26.77;;
57225;SDS011;43082;43.568;22.256;2022-12-29T01:23:10;35.22;;;24.30;;
57225;SDS011;43082;43.568;22.256;2022-12-29T01:25:35;36.10;;;25.13;;
57225;SDS011;43082;43.568;22.256;2022-12-29T01:28:01;36.88;;;26.45;;
57225;SDS011;43082;43.568;22.256;2022-12-29T01:30:26;39.50;;;26.77;;
57225;SDS011;43082;43.568;22.256;2022-12-29T01:32:52;58.17;;;36.13;;
57225;SDS011;43082;43.568;22.256;2022-12-29T01:35:17;73.85;;;42.80;;
57225;SDS011;43082;43.568;22.256;2022-12-29T01:37:42;63.53;;;37.22;;
57225;SDS011;43082;43.568;22.256;2022-12-29T01:40:08;40.05;;;26.70;;
57225;SDS011;43082;43.568;22.256;2022-12-29T01:42:34;38.63;;;24.35;;
57225;SDS011;43082;43.568;22.256;2022-12-29T01:45:00;38.85;;;25.00;;
57225;SDS011;43082;43.568;22.256;2022-12-29T01:47:29;43.67;;;28.15;;
57225;SDS011;43082;43.568;22.256;2022-12-29T01:50:10;43.10;;;28.52;;
57225;SDS011;43082;43.568;22.256;2022-12-29T01:52:38;37.08;;;24.25;;
57225;SDS011;43082;43.568;22.256;2022-12-29T01:55:06;35.78;;;23.40;;
57225;SDS011;43082;43.568;22.256;2022-12-29T01:57:34;34.70;;;22.13;;
57225;SDS011;43082;43.568;22.256;2022-12-29T02:00:12;39.53;;;24.75;;
57225;SDS011;43082;43.568;22.256;2022-12-29T02:02:38;48.83;;;33.40;;
57225;SDS011;43082;43.568;22.256;2022-12-29T02:05:18;52.60;;;37.78;;
57225;SDS011;43082;43.568;22.256;2022-12-29T02:07:48;50.38;;;33.70;;
57225;SDS011;43082;43.568;22.256;2022-12-29T02:10:15;48.17;;;31.75;;
57225;SDS011;43082;43.568;22.256;2022-12-29T02:12:41;38.80;;;25.52;;
57225;SDS011;43082;43.568;22.256;2022-12-29T02:15:06;32.42;;;21.15;;
57225;SDS011;43082;43.568;22.256;2022-12-29T02:41:48;35.00;;;24.15;;
57225;SDS011;43082;43.568;22.256;2022-12-29T02:44:25;56.58;;;35.00;;
57225;SDS011;43082;43.568;22.256;2022-12-29T02:49:41;59.80;;;39.05;;
57225;SDS011;43082;43.568;22.256;2022-12-29T02:52:23;48.35;;;32.35;;
57225;SDS011;43082;43.568;22.256;2022-12-29T02:54:55;43.28;;;30.77;;
57225;SDS011;43082;43.568;22.256;2022-12-29T02:59:46;46.95;;;32.80;;
57225;SDS011;43082;43.568;22.256;2022-12-29T03:16:29;36.95;;;23.83;;
57225;SDS011;43082;43.568;22.256;2022-12-29T03:19:02;32.50;;;20.38;;
57225;SDS011;43082;43.568;22.256;2022-12-29T03:24:20;25.80;;;17.65;;
57225;SDS011;43082;43.568;22.256;2022-12-29T03:26:48;25.83;;;17.27;;
57225;SDS011;43082;43.568;22.256;2022-12-29T03:29:14;25.15;;;15.70;;
57225;SDS011;43082;43.568;22.256;2022-12-29T03:31:41;21.98;;;14.93;;
57225;SDS011;43082;43.568;22.256;2022-12-29T03:34:07;22.77;;;14.93;;
57225;SDS011;43082;43.568;22.256;2022-12-29T03:36:36;22.95;;;14.95;;
57225;SDS011;43082;43.568;22.256;2022-12-29T03:39:29;25.58;;;16.33;;
57225;SDS011;43082;43.568;22.256;2022-12-29T03:41:57;29.13;;;19.00;;
57225;SDS011;43082;43.568;22.256;2022-12-29T03:44:38;32.20;;;21.65;;
57225;SDS011;43082;43.568;22.256;2022-12-29T03:47:06;22.50;;;14.82;;
57225;SDS011;43082;43.568;22.256;2022-12-29T03:49:32;21.98;;;13.45;;
57225;SDS011;43082;43.568;22.256;2022-12-29T03:51:58;21.08;;;13.57;;
57225;SDS011;43082;43.568;22.256;2022-12-29T03:54:23;20.48;;;11.48;;
57225;SDS011;43082;43.568;22.256;2022-12-29T03:56:49;24.85;;;15.55;;
57225;SDS011;43082;43.568;22.256;2022-12-29T03:59:14;23.42;;;14.82;;
57225;SDS011;43082;43.568;22.256;2022-12-29T04:01:40;20.33;;;12.80;;
57225;SDS011;43082;43.568;22.256;2022-12-29T04:04:05;17.90;;;12.40;;
57225;SDS011;43082;43.568;22.256;2022-12-29T04:06:31;15.48;;;10.20;;
57225;SDS011;43082;43.568;22.256;2022-12-29T04:08:56;19.25;;;11.30;;
57225;SDS011;43082;43.568;22.256;2022-12-29T04:11:21;16.42;;;10.82;;
57225;SDS011;43082;43.568;22.256;2022-12-29T04:13:48;20.42;;;11.93;;
57225;SDS011;43082;43.568;22.256;2022-12-29T04:16:13;19.58;;;12.52;;
57225;SDS011;43082;43.568;22.256;2022-12-29T04:18:39;25.27;;;14.95;;
57225;SDS011;43082;43.568;22.256;2022-12-29T04:21:05;31.25;;;18.73;;
57225;SDS011;43082;43.568;22.256;2022-12-29T04:23:31;26.70;;;17.80;;
57225;SDS011;43082;43.568;22.256;2022-12-29T04:25:58;24.77;;;16.83;;
57225;SDS011;43082;43.568;22.256;2022-12-29T04:28:24;26.38;;;16.30;;
57225;SDS011;43082;43.568;22.256;2022-12-29T04:30:50;25.25;;;15.38;;
57225;SDS011;43082;43.568;22.256;2022-12-29T04:33:15;21.92;;;14.07;;
57225;SDS011;43082;43.568;22.256;2022-12-29T04:35:41;18.27;;;11.43;;
57225;SDS011;43082;43.568;22.256;2022-12-29T04:38:07;15.50;;;10.43;;
57225;SDS011;43082;43.568;22.256;2022-12-29T04:40:33;16.92;;;10.38;;
57225;SDS011;43082;43.568;22.256;2022-12-29T04:42:58;19.33;;;12.35;;
57225;SDS011;43082;43.568;22.256;2022-12-29T04:45:23;21.33;;;14.60;;
57225;SDS011;43082;43.568;22.256;2022-12-29T04:47:49;25.15;;;17.20;;
57225;SDS011;43082;43.568;22.256;2022-12-29T04:50:14;23.63;;;14.65;;
57225;SDS011;43082;43.568;22.256;2022-12-29T04:52:40;22.35;;;15.05;;
57225;SDS011;43082;43.568;22.256;2022-12-29T04:55:05;22.95;;;14.80;;
57225;SDS011;43082;43.568;22.256;2022-12-29T04:57:32;22.30;;;15.43;;
57225;SDS011;43082;43.568;22.256;2022-12-29T04:59:57;22.67;;;14.88;;
57225;SDS011;43082;43.568;22.256;2022-12-29T05:02:23;25.30;;;16.38;;
57225;SDS011;43082;43.568;22.256;2022-12-29T05:04:48;48.95;;;26.85;;
57225;SDS011;43082;43.568;22.256;2022-12-29T05:07:14;38.30;;;24.20;;
57225;SDS011;43082;43.568;22.256;2022-12-29T05:09:39;45.00;;;27.83;;
57225;SDS011;43082;43.568;22.256;2022-12-29T05:12:05;52.83;;;31.48;;
57225;SDS011;43082;43.568;22.256;2022-12-29T05:14:30;52.35;;;34.33;;
57225;SDS011;43082;43.568;22.256;2022-12-29T05:20:18;67.40;;;41.78;;
57225;SDS011;43082;43.568;22.256;2022-12-29T05:22:43;59.70;;;38.58;;
57225;SDS011;43082;43.568;22.256;2022-12-29T05:25:09;56.78;;;36.83;;
57225;SDS011;43082;43.568;22.256;2022-12-29T05:27:34;46.60;;;29.48;;
57225;SDS011;43082;43.568;22.256;2022-12-29T05:30:00;35.90;;;25.02;;
57225;SDS011;43082;43.568;22.256;2022-12-29T05:32:25;38.00;;;25.38;;
57225;SDS011;43082;43.568;22.256;2022-12-29T05:34:51;48.13;;;30.73;;
57225;SDS011;43082;43.568;22.256;2022-12-29T05:37:16;50.95;;;33.03;;
57225;SDS011;43082;43.568;22.256;2022-12-29T05:39:41;52.10;;;33.97;;
57225;SDS011;43082;43.568;22.256;2022-12-29T05:42:07;47.88;;;31.95;;
57225;SDS011;43082;43.568;22.256;2022-12-29T05:44:32;50.78;;;34.83;;
57225;SDS011;43082;43.568;22.256;2022-12-29T05:46:58;56.78;;;38.67;;
57225;SDS011;43082;43.568;22.256;2022-12-29T05:49:23;52.15;;;36.33;;
57225;SDS011;43082;43.568;22.256;2022-12-29T05:55:10;68.28;;;43.72;;
57225;SDS011;43082;43.568;22.256;2022-12-29T05:57:35;61.92;;;43.38;;
57225;SDS011;43082;43.568;22.256;2022-12-29T06:00:02;65.93;;;43.70;;
57225;SDS011;43082;43.568;22.256;2022-12-29T06:02:28;51.92;;;34.30;;
57225;SDS011;43082;43.568;22.256;2022-12-29T06:04:53;42.42;;;33.03;;
57225;SDS011;43082;43.568;22.256;2022-12-29T06:07:19;27.75;;;19.75;;
57225;SDS011;43082;43.568;22.256;2022-12-29T06:09:44;22.70;;;15.35;;
57225;SDS011;43082;43.568;22.256;2022-12-29T06:12:10;18.63;;;12.68;;
57225;SDS011;43082;43.568;22.256;2022-12-29T06:14:35;21.30;;;15.05;;
57225;SDS011;43082;43.568;22.256;2022-12-29T06:17:00;35.75;;;24.95;;
57225;SDS011;43082;43.568;22.256;2022-12-29T06:19:26;26.38;;;19.05;;
57225;SDS011;43082;43.568;22.256;2022-12-29T06:21:51;29.35;;;21.83;;
57225;SDS011;43082;43.568;22.256;2022-12-29T06:24:17;28.75;;;21.23;;
57225;SDS011;43082;43.568;22.256;2022-12-29T06:26:43;24.08;;;16.95;;
57225;SDS011;43082;43.568;22.256;2022-12-29T06:29:08;26.85;;;17.38;;
57225;SDS011;43082;43.568;22.256;2022-12-29T06:31:34;20.83;;;14.07;;
57225;SDS011;43082;43.568;22.256;2022-12-29T06:33:59;22.30;;;13.50;;
57225;SDS011;43082;43.568;22.256;2022-12-29T06:36:25;22.45;;;13.90;;
57225;SDS011;43082;43.568;22.256;2022-12-29T06:38:50;23.48;;;16.30;;
57225;SDS011;43082;43.568;22.256;2022-12-29T06:41:17;34.97;;;25.05;;
57225;SDS011;43082;43.568;22.256;2022-12-29T06:43:44;37.85;;;29.67;;
57225;SDS011;43082;43.568;22.256;2022-12-29T06:46:09;167.38;;;150.90;;
57225;SDS011;43082;43.568;22.256;2022-12-29T06:48:35;38.20;;;34.05;;
57225;SDS011;43082;43.568;22.256;2022-12-29T06:51:00;40.08;;;27.25;;
57225;SDS011;43082;43.568;22.256;2022-12-29T06:53:26;23.45;;;17.35;;
57225;SDS011;43082;43.568;22.256;2022-12-29T06:55:51;30.90;;;16.88;;
57225;SDS011;43082;43.568;22.256;2022-12-29T06:58:17;22.35;;;14.05;;
57225;SDS011;43082;43.568;22.256;2022-12-29T07:00:42;21.98;;;14.02;;
57225;SDS011;43082;43.568;22.256;2022-12-29T07:03:07;23.90;;;14.95;;
57225;SDS011;43082;43.568;22.256;2022-12-29T07:05:33;19.40;;;13.27;;
57225;SDS011;43082;43.568;22.256;2022-12-29T07:07:58;19.90;;;12.20;;
57225;SDS011;43082;43.568;22.256;2022-12-29T07:10:25;18.65;;;13.00;;
57225;SDS011;43082;43.568;22.256;2022-12-29T07:12:50;50.65;;;32.60;;
57225;SDS011;43082;43.568;22.256;2022-12-29T07:15:16;34.67;;;25.45;;
57225;SDS011;43082;43.568;22.256;2022-12-29T07:17:41;34.97;;;20.95;;
57225;SDS011;43082;43.568;22.256;2022-12-29T07:20:07;30.15;;;16.15;;
57225;SDS011;43082;43.568;22.256;2022-12-29T07:22:33;24.48;;;14.50;;
57225;SDS011;43082;43.568;22.256;2022-12-29T07:24:59;25.45;;;15.90;;
57225;SDS011;43082;43.568;22.256;2022-12-29T07:27:24;35.53;;;24.65;;
57225;SDS011;43082;43.568;22.256;2022-12-29T07:29:50;40.30;;;30.63;;
57225;SDS011;43082;43.568;22.256;2022-12-29T07:32:15;58.25;;;43.03;;
57225;SDS011;43082;43.568;22.256;2022-12-29T07:34:40;54.20;;;39.58;;
57225;SDS011;43082;43.568;22.256;2022-12-29T07:37:06;60.08;;;44.72;;
57225;SDS011;43082;43.568;22.256;2022-12-29T07:39:31;51.03;;;33.38;;
57225;SDS011;43082;43.568;22.256;2022-12-29T07:41:57;46.33;;;34.33;;
57225;SDS011;43082;43.568;22.256;2022-12-29T07:44:22;55.92;;;38.28;;
57225;SDS011;43082;43.568;22.256;2022-12-29T07:46:48;60.85;;;43.72;;
57225;SDS011;43082;43.568;22.256;2022-12-29T07:49:13;69.85;;;46.35;;
57225;SDS011;43082;43.568;22.256;2022-12-29T07:51:38;80.18;;;49.05;;
57225;SDS011;43082;43.568;22.256;2022-12-29T07:54:04;74.05;;;53.22;;
57225;SDS011;43082;43.568;22.256;2022-12-29T07:56:29;82.30;;;57.30;;
57225;SDS011;43082;43.568;22.256;2022-12-29T07:58:55;70.15;;;50.67;;
57225;SDS011;43082;43.568;22.256;2022-12-29T08:01:20;69.00;;;47.97;;
57225;SDS011;43082;43.568;22.256;2022-12-29T08:03:48;67.43;;;51.08;;
57225;SDS011;43082;43.568;22.256;2022-12-29T08:06:13;77.03;;;54.50;;
57225;SDS011;43082;43.568;22.256;2022-12-29T08:08:39;60.20;;;46.55;;
57225;SDS011;43082;43.568;22.256;2022-12-29T08:11:04;67.43;;;43.50;;
57225;SDS011;43082;43.568;22.256;2022-12-29T08:13:30;45.75;;;33.78;;
57225;SDS011;43082;43.568;22.256;2022-12-29T08:15:57;48.60;;;33.47;;
57225;SDS011;43082;43.568;22.256;2022-12-29T08:18:22;42.00;;;30.75;;
57225;SDS011;43082;43.568;22.256;2022-12-29T08:20:48;48.88;;;35.45;;
57225;SDS011;43082;43.568;22.256;2022-12-29T08:23:13;47.42;;;33.58;;
57225;SDS011;43082;43.568;22.256;2022-12-29T08:25:38;46.03;;;33.38;;
57225;SDS011;43082;43.568;22.256;2022-12-29T08:28:04;43.78;;;30.50;;
57225;SDS011;43082;43.568;22.256;2022-12-29T08:30:29;39.42;;;28.83;;
57225;SDS011;43082;43.568;22.256;2022-12-29T08:32:54;39.78;;;28.33;;
57225;SDS011;43082;43.568;22.256;2022-12-29T08:35:20;41.35;;;27.00;;
57225;SDS011;43082;43.568;22.256;2022-12-29T08:37:45;36.70;;;25.00;;
57225;SDS011;43082;43.568;22.256;2022-12-29T08:40:11;31.92;;;23.92;;
57225;SDS011;43082;43.568;22.256;2022-12-29T08:42:36;32.58;;;22.70;;
57225;SDS011;43082;43.568;22.256;2022-12-29T08:45:02;29.67;;;20.05;;
57225;SDS011;43082;43.568;22.256;2022-12-29T08:47:27;34.78;;;21.38;;
57225;SDS011;43082;43.568;22.256;2022-12-29T08:49:53;29.90;;;21.10;;
57225;SDS011;43082;43.568;22.256;2022-12-29T08:52:18;31.10;;;21.77;;
57225;SDS011;43082;43.568;22.256;2022-12-29T08:54:44;34.40;;;22.77;;
57225;SDS011;43082;43.568;22.256;2022-12-29T08:57:09;38.80;;;26.42;;
57225;SDS011;43082;43.568;22.256;2022-12-29T08:59:34;44.75;;;30.55;;
57225;SDS011;43082;43.568;22.256;2022-12-29T09:02:00;36.00;;;26.65;;
57225;SDS011;43082;43.568;22.256;2022-12-29T09:04:26;36.88;;;24.77;;
57225;SDS011;43082;43.568;22.256;2022-12-29T09:06:52;34.63;;;25.52;;
57225;SDS011;43082;43.568;22.256;2022-12-29T09:09:18;29.38;;;22.05;;
57225;SDS011;43082;43.568;22.256;2022-12-29T09:11:44;40.33;;;23.58;;
57225;SDS011;43082;43.568;22.256;2022-12-29T09:14:09;36.88;;;26.20;;
57225;SDS011;43082;43.568;22.256;2022-12-29T09:16:35;46.67;;;35.03;;
57225;SDS011;43082;43.568;22.256;2022-12-29T09:19:01;49.95;;;37.22;;
57225;SDS011;43082;43.568;22.256;2022-12-29T09:21:26;46.47;;;36.90;;
57225;SDS011;43082;43.568;22.256;2022-12-29T09:23:52;50.30;;;38.92;;
57225;SDS011;43082;43.568;22.256;2022-12-29T09:26:17;53.13;;;41.40;;
57225;SDS011;43082;43.568;22.256;2022-12-29T09:28:43;63.00;;;46.97;;
57225;SDS011;43082;43.568;22.256;2022-12-29T09:31:09;56.33;;;44.58;;
57225;SDS011;43082;43.568;22.256;2022-12-29T09:33:34;61.67;;;46.30;;
57225;SDS011;43082;43.568;22.256;2022-12-29T09:36:00;64.05;;;49.20;;
57225;SDS011;43082;43.568;22.256;2022-12-29T09:38:26;65.20;;;53.00;;
57225;SDS011;43082;43.568;22.256;2022-12-29T09:40:53;68.53;;;51.10;;
57225;SDS011;43082;43.568;22.256;2022-12-29T09:48:45;59.40;;;48.28;;
57225;SDS011;43082;43.568;22.256;2022-12-29T09:51:15;66.65;;;53.60;;
57225;SDS011;43082;43.568;22.256;2022-12-29T09:53:43;81.47;;;58.75;;
57225;SDS011;43082;43.568;22.256;2022-12-29T09:56:18;78.93;;;63.88;;
57225;SDS011;43082;43.568;22.256;2022-12-29T09:58:55;92.07;;;74.82;;
57225;SDS011;43082;43.568;22.256;2022-12-29T10:04:15;106.20;;;85.43;;
57225;SDS011;43082;43.568;22.256;2022-12-29T10:25:57;132.75;;;107.00;;
57225;SDS011;43082;43.568;22.256;2022-12-29T10:28:24;136.73;;;108.15;;
57225;SDS011;43082;43.568;22.256;2022-12-29T10:31:06;180.13;;;145.80;;
57225;SDS011;43082;43.568;22.256;2022-12-29T10:33:36;160.30;;;132.15;;
57225;SDS011;43082;43.568;22.256;2022-12-29T10:36:12;168.25;;;136.60;;
57225;SDS011;43082;43.568;22.256;2022-12-29T10:38:58;175.52;;;137.77;;
57225;SDS011;43082;43.568;22.256;2022-12-29T10:41:53;140.73;;;114.53;;
57225;SDS011;43082;43.568;22.256;2022-12-29T10:44:29;126.82;;;100.70;;
57225;SDS011;43082;43.568;22.256;2022-12-29T10:47:02;114.95;;;87.72;;
57225;SDS011;43082;43.568;22.256;2022-12-29T10:49:30;110.32;;;86.38;;
57225;SDS011;43082;43.568;22.256;2022-12-29T10:51:56;110.95;;;86.13;;
57225;SDS011;43082;43.568;22.256;2022-12-29T10:54:28;150.52;;;115.47;;
57225;SDS011;43082;43.568;22.256;2022-12-29T10:59:31;124.07;;;90.97;;
57225;SDS011;43082;43.568;22.256;2022-12-29T11:07:09;110.75;;;90.15;;
57225;SDS011;43082;43.568;22.256;2022-12-29T11:09:37;137.75;;;100.32;;
57225;SDS011;43082;43.568;22.256;2022-12-29T11:12:20;52.47;;;43.22;;
57225;SDS011;43082;43.568;22.256;2022-12-29T11:17:42;17.45;;;11.93;;
57225;SDS011;43082;43.568;22.256;2022-12-29T11:23:01;22.67;;;16.48;;
57225;SDS011;43082;43.568;22.256;2022-12-29T11:25:27;27.48;;;19.63;;
57225;SDS011;43082;43.568;22.256;2022-12-29T11:28:01;23.33;;;18.00;;
57225;SDS011;43082;43.568;22.256;2022-12-29T11:30:30;14.95;;;10.02;;
57225;SDS011;43082;43.568;22.256;2022-12-29T11:32:56;21.50;;;14.50;;
57225;SDS011;43082;43.568;22.256;2022-12-29T11:35:36;26.10;;;16.88;;
57225;SDS011;43082;43.568;22.256;2022-12-29T11:38:04;14.68;;;9.10;;
57225;SDS011;43082;43.568;22.256;2022-12-29T11:40:30;16.35;;;9.73;;
57225;SDS011;43082;43.568;22.256;2022-12-29T11:42:58;14.00;;;8.73;;
57225;SDS011;43082;43.568;22.256;2022-12-29T11:45:29;16.95;;;8.90;;
57225;SDS011;43082;43.568;22.256;2022-12-29T11:48:07;13.25;;;8.15;;
57225;SDS011;43082;43.568;22.256;2022-12-29T11:50:38;19.48;;;10.88;;
57225;SDS011;43082;43.568;22.256;2022-12-29T11:55:31;18.60;;;12.63;;
57225;SDS011;43082;43.568;22.256;2022-12-29T11:57:58;14.45;;;8.68;;
57225;SDS011;43082;43.568;22.256;2022-12-29T12:00:27;13.55;;;8.32;;
57225;SDS011;43082;43.568;22.256;2022-12-29T12:11:15;22.13;;;13.52;;
57225;SDS011;43082;43.568;22.256;2022-12-29T12:16:43;17.80;;;8.02;;
57225;SDS011;43082;43.568;22.256;2022-12-29T12:19:32;17.65;;;11.40;;
57225;SDS011;43082;43.568;22.256;2022-12-29T12:22:03;14.10;;;9.85;;
57225;SDS011;43082;43.568;22.256;2022-12-29T12:27:28;18.20;;;13.20;;
57225;SDS011;43082;43.568;22.256;2022-12-29T12:35:10;19.52;;;11.45;;
57225;SDS011;43082;43.568;22.256;2022-12-29T12:51:30;17.90;;;13.52;;
57225;SDS011;43082;43.568;22.256;2022-12-29T12:59:33;17.40;;;11.05;;
57225;SDS011;43082;43.568;22.256;2022-12-29T13:02:32;39.33;;;34.20;;
57225;SDS011;43082;43.568;22.256;2022-12-29T13:13:59;21.73;;;15.43;;
57225;SDS011;43082;43.568;22.256;2022-12-29T13:21:54;24.48;;;16.42;;
57225;SDS011;43082;43.568;22.256;2022-12-29T13:27:10;13.55;;;10.70;;
57225;SDS011;43082;43.568;22.256;2022-12-29T13:35:19;13.50;;;7.82;;
57225;SDS011;43082;43.568;22.256;2022-12-29T13:37:53;15.70;;;9.68;;
57225;SDS011;43082;43.568;22.256;2022-12-29T13:40:28;18.83;;;10.02;;
57225;SDS011;43082;43.568;22.256;2022-12-29T13:42:59;38.78;;;22.45;;
57225;SDS011;43082;43.568;22.256;2022-12-29T13:45:26;35.95;;;22.08;;
57225;SDS011;43082;43.568;22.256;2022-12-29T13:47:59;54.20;;;32.47;;
57225;SDS011;43082;43.568;22.256;2022-12-29T13:50:27;20.60;;;12.35;;
57225;SDS011;43082;43.568;22.256;2022-12-29T13:55:51;35.80;;;20.83;;
57225;SDS011;43082;43.568;22.256;2022-12-29T14:03:51;31.23;;;23.13;;
57225;SDS011;43082;43.568;22.256;2022-12-29T14:09:04;26.13;;;18.23;;
57225;SDS011;43082;43.568;22.256;2022-12-29T14:11:34;28.60;;;21.88;;
57225;SDS011;43082;43.568;22.256;2022-12-29T14:17:08;36.15;;;22.85;;
57225;SDS011;43082;43.568;22.256;2022-12-29T14:19:36;43.33;;;29.85;;
57225;SDS011;43082;43.568;22.256;2022-12-29T14:22:06;47.60;;;30.77;;
57225;SDS011;43082;43.568;22.256;2022-12-29T14:27:42;46.17;;;27.52;;
57225;SDS011;43082;43.568;22.256;2022-12-29T14:29:54;51.35;;;29.42;;
57225;SDS011;43082;43.568;22.256;2022-12-29T14:34:45;102.82;;;61.50;;
57225;SDS011;43082;43.568;22.256;2022-12-29T14:40:06;138.25;;;65.45;;
57225;SDS011;43082;43.568;22.256;2022-12-29T14:42:40;137.00;;;66.93;;
57225;SDS011;43082;43.568;22.256;2022-12-29T14:47:41;129.38;;;67.95;;
57225;SDS011;43082;43.568;22.256;2022-12-29T14:52:48;128.60;;;71.88;;
57225;SDS011;43082;43.568;22.256;2022-12-29T14:57:48;130.18;;;71.03;;
57225;SDS011;43082;43.568;22.256;2022-12-29T15:00:17;116.32;;;77.07;;
57225;SDS011;43082;43.568;22.256;2022-12-29T15:03:35;164.45;;;101.35;;
57225;SDS011;43082;43.568;22.256;2022-12-29T15:05:56;172.75;;;114.32;;
57225;SDS011;43082;43.568;22.256;2022-12-29T15:08:24;193.25;;;116.38;;
57225;SDS011;43082;43.568;22.256;2022-12-29T15:10:53;180.18;;;116.25;;
57225;SDS011;43082;43.568;22.256;2022-12-29T15:13:22;181.55;;;113.55;;
57225;SDS011;43082;43.568;22.256;2022-12-29T15:15:50;170.98;;;109.78;;
57225;SDS011;43082;43.568;22.256;2022-12-29T15:18:25;166.85;;;106.18;;
57225;SDS011;43082;43.568;22.256;2022-12-29T15:20:53;173.90;;;106.47;;
57225;SDS011;43082;43.568;22.256;2022-12-29T15:23:23;195.38;;;127.68;;
57225;SDS011;43082;43.568;22.256;2022-12-29T15:25:59;179.43;;;115.97;;
57225;SDS011;43082;43.568;22.256;2022-12-29T15:28:37;176.60;;;117.20;;
57225;SDS011;43082;43.568;22.256;2022-12-29T15:31:04;195.50;;;124.78;;
57225;SDS011;43082;43.568;22.256;2022-12-29T15:33:31;212.95;;;131.60;;
57225;SDS011;43082;43.568;22.256;2022-12-29T15:36:08;231.00;;;151.20;;
57225;SDS011;43082;43.568;22.256;2022-12-29T15:38:35;225.88;;;142.50;;
57225;SDS011;43082;43.568;22.256;2022-12-29T15:44:04;218.82;;;136.05;;
57225;SDS011;43082;43.568;22.256;2022-12-29T15:46:31;203.82;;;134.43;;
57225;SDS011;43082;43.568;22.256;2022-12-29T15:48:57;111.75;;;84.82;;
57225;SDS011;43082;43.568;22.256;2022-12-29T15:51:26;111.88;;;86.88;;
57225;SDS011;43082;43.568;22.256;2022-12-29T15:53:54;80.28;;;58.20;;
57225;SDS011;43082;43.568;22.256;2022-12-29T15:56:20;100.40;;;74.90;;
57225;SDS011;43082;43.568;22.256;2022-12-29T15:58:46;129.35;;;97.80;;
57225;SDS011;43082;43.568;22.256;2022-12-29T16:03:42;81.50;;;58.75;;
57225;SDS011;43082;43.568;22.256;2022-12-29T16:06:09;175.50;;;122.10;;
57225;SDS011;43082;43.568;22.256;2022-12-29T16:08:39;145.93;;;101.65;;
57225;SDS011;43082;43.568;22.256;2022-12-29T16:11:19;83.55;;;61.08;;
57225;SDS011;43082;43.568;22.256;2022-12-29T16:13:47;169.75;;;126.45;;
57225;SDS011;43082;43.568;22.256;2022-12-29T16:16:15;63.00;;;47.83;;
57225;SDS011;43082;43.568;22.256;2022-12-29T16:18:43;68.47;;;46.70;;
57225;SDS011;43082;43.568;22.256;2022-12-29T16:21:16;134.70;;;97.90;;
57225;SDS011;43082;43.568;22.256;2022-12-29T16:23:46;24.63;;;18.17;;
57225;SDS011;43082;43.568;22.256;2022-12-29T16:26:17;157.68;;;112.15;;
57225;SDS011;43082;43.568;22.256;2022-12-29T16:28:43;179.50;;;124.55;;
57225;SDS011;43082;43.568;22.256;2022-12-29T16:37:00;145.32;;;103.05;;
57225;SDS011;43082;43.568;22.256;2022-12-29T16:39:37;137.45;;;101.97;;
57225;SDS011;43082;43.568;22.256;2022-12-29T16:45:07;137.05;;;102.03;;
57225;SDS011;43082;43.568;22.256;2022-12-29T16:50:31;175.50;;;129.57;;
57225;SDS011;43082;43.568;22.256;2022-12-29T16:52:58;202.18;;;149.25;;
57225;SDS011;43082;43.568;22.256;2022-12-29T16:55:23;165.25;;;126.78;;
57225;SDS011;43082;43.568;22.256;2022-12-29T16:57:49;145.55;;;103.57;;
57225;SDS011;43082;43.568;22.256;2022-12-29T17:00:22;149.63;;;109.20;;
57225;SDS011;43082;43.568;22.256;2022-12-29T17:02:49;121.70;;;90.30;;
57225;SDS011;43082;43.568;22.256;2022-12-29T17:05:17;138.55;;;100.82;;
57225;SDS011;43082;43.568;22.256;2022-12-29T17:07:43;127.82;;;93.22;;
57225;SDS011;43082;43.568;22.256;2022-12-29T17:10:09;125.28;;;91.97;;
57225;SDS011;43082;43.568;22.256;2022-12-29T17:12:35;119.72;;;88.28;;
57225;SDS011;43082;43.568;22.256;2022-12-29T17:15:05;83.93;;;61.58;;
57225;SDS011;43082;43.568;22.256;2022-12-29T17:17:46;110.15;;;82.25;;
57225;SDS011;43082;43.568;22.256;2022-12-29T17:22:44;143.73;;;105.40;;
57225;SDS011;43082;43.568;22.256;2022-12-29T17:25:14;111.88;;;87.65;;
57225;SDS011;43082;43.568;22.256;2022-12-29T17:27:45;120.50;;;95.00;;
57225;SDS011;43082;43.568;22.256;2022-12-29T17:30:22;154.50;;;115.57;;
57225;SDS011;43082;43.568;22.256;2022-12-29T17:32:52;189.90;;;141.82;;
57225;SDS011;43082;43.568;22.256;2022-12-29T17:35:28;181.55;;;135.52;;
57225;SDS011;43082;43.568;22.256;2022-12-29T17:37:54;168.27;;;130.82;;
57225;SDS011;43082;43.568;22.256;2022-12-29T17:40:26;161.45;;;125.70;;
57225;SDS011;43082;43.568;22.256;2022-12-29T17:42:53;160.95;;;122.90;;